New Haven, CT (06512)

1:09 AM EDT on October 01, 2016 (GMT -0400)
Beacon Hill/Lake Saltonstall - Branford | | Change Station

Elev 20 ft 41.28 °N, 72.86 °W | Updated 29 seconds ago

Overcast
Overcast
53.4 °F
Feels Like 53.4 °F
N
1.0
Wind Variable Wind from WNW
Gusts 7.0 mph

Today
High -- | Low -- °F
--% Chance of Precip.
Yesterday
High -- | Low -- °F
Precip. -- in
Pressure 30.26 in
Visibility 10.0 miles
Clouds Mostly Cloudy 700 ft
Mostly Cloudy 1300 ft
Overcast 2300 ft
Dew Point 53 °F
Humidity 99%
Rainfall 0.00 in
Snow Depth Not available.
6:48 AM 6:32 PM
New Moon, 0% visible
SPECI KHVN 010500Z AUTO 01010KT 10SM BKN007 BKN013 OVC023 12/11 A3026 RMK AO2 T01220111
Pressure 30.26 in
Visibility 10.0 miles
Clouds Mostly Cloudy 700 ft
Mostly Cloudy 1300 ft
Overcast 2300 ft
Dew Point 53 °F
Humidity 99%
Rainfall 0.00 in
Snow Depth Not available.
6:48 AM 6:32 PM
New Moon, 0% visible
SPECI KHVN 010500Z AUTO 01010KT 10SM BKN007 BKN013 OVC023 12/11 A3026 RMK AO2 T01220111

10-Day Weather Forecast

Almanac

Astronomy

Oct. 01, 2016 Rise Set
Actual Time
Civil Twilight
Nautical Twilight
Astronomical Twilight
Moon
Length of Visible Light
Length of Day
Tomorrow will be .
, % of the Moon is Illuminated

Today's Extremes

State Highs State Lows

Community

WunderPhotos

Upload Photos

1,942,894 photos uploaded!

WunderBlog® & News

Nearby

Air Quality

  Air Quality AQ Index Pollutant
Not available.

Snow Depth

Station Depth Elevation

Earthquake Activity

City Distance Mag. Time & Date
Minimum magnitude displayed is 2.5.

Coastal Water Temperatures

Place Temperature

Stations

Nearby Weather Stations

Station Location Temp. Windchill Dew Point Humidity Wind Precip. Elev Updated Type
                   

Watches & Warnings

There are currently no watches in effect.